Time;durP1;ratioP1;P1;durP2;ratioP2;P2;SDS_P1;SDS_P2;PMS_P1;PMS_P2;Temp;Humidity;BMP_temperature;BMP_pressure;BME280_temperature;BME280_humidity;BME280_pressure;Samples;Min_cycle;Max_cycle;Signal;HPM_P1;HPM_P2
2022/09/06 00:02:20;;;;;;;7.63;3.40;;;;;;;16.72;100.00;100752.69;5049108;28;20032;-77
2022/09/06 00:04:47;;;;;;;13.45;3.95;;;;;;;16.78;100.00;100753.09;5050197;28;20496;-78
2022/09/06 00:07:12;;;;;;;6.13;4.43;;;;;;;16.72;100.00;100737.63;5053265;28;20025;-82
2022/09/06 00:09:37;;;;;;;7.20;3.95;;;;;;;16.68;100.00;100733.47;5053529;28;20067;-82
2022/09/06 00:12:03;;;;;;;6.75;4.00;;;;;;;16.64;100.00;100733.78;5050347;28;20036;-80
2022/09/06 00:14:28;;;;;;;7.13;4.30;;;;;;;16.63;100.00;100727.63;5051566;28;20060;-81
2022/09/06 00:16:53;;;;;;;6.13;4.20;;;;;;;16.61;100.00;100723.38;5053514;28;20478;-79
2022/09/06 00:19:19;;;;;;;8.15;4.57;;;;;;;16.63;100.00;100710.84;5030319;28;20035;-81
2022/09/06 00:21:44;;;;;;;6.30;4.22;;;;;;;16.66;100.00;100692.91;5060573;28;20028;-81
2022/09/06 00:24:09;;;;;;;8.43;4.63;;;;;;;16.52;100.00;100669.16;5057130;28;20025;-81
2022/09/06 00:26:35;;;;;;;6.22;4.63;;;;;;;16.44;100.00;100670.63;5053295;28;20463;-80
2022/09/06 00:29:00;;;;;;;5.50;4.32;;;;;;;16.60;100.00;100673.91;5052407;28;20462;-79
2022/09/06 00:31:26;;;;;;;10.13;4.85;;;;;;;16.68;100.00;100683.06;5052413;28;20032;-79
2022/09/06 00:33:52;;;;;;;5.82;4.75;;;;;;;16.70;100.00;100665.19;5053017;28;20079;-78
2022/09/06 00:36:18;;;;;;;7.00;4.65;;;;;;;16.76;100.00;100658.63;5053163;28;20040;-78
2022/09/06 00:38:44;;;;;;;6.65;4.88;;;;;;;16.69;100.00;100641.44;5055054;28;20107;-77
2022/09/06 00:41:11;;;;;;;6.93;4.95;;;;;;;16.73;100.00;100641.09;5061371;28;20107;-76
2022/09/06 00:43:38;;;;;;;7.35;5.47;;;;;;;16.44;100.00;100599.84;5053279;28;20040;-77
2022/09/06 00:46:06;;;;;;;9.57;6.18;;;;;;;16.77;100.00;100650.53;5052882;28;20089;-79
2022/09/06 00:48:31;;;;;;;7.60;5.40;;;;;;;16.69;100.00;100631.69;5052339;28;20029;-78
2022/09/06 00:50:59;;;;;;;8.50;5.20;;;;;;;16.54;100.00;100608.00;5052462;28;20101;-78
2022/09/06 00:53:25;;;;;;;13.85;5.13;;;;;;;16.54;100.00;100610.66;5052558;28;20056;-77
2022/09/06 00:55:51;;;;;;;6.47;4.55;;;;;;;16.40;100.00;100563.88;5051711;28;20065;-77
2022/09/06 00:58:17;;;;;;;7.85;5.32;;;;;;;16.60;100.00;100579.25;5052349;28;20021;-77
2022/09/06 01:00:43;;;;;;;8.68;5.55;;;;;;;16.62;100.00;100549.97;5051860;28;20056;-76
2022/09/06 01:03:09;;;;;;;8.35;5.65;;;;;;;16.61;100.00;100527.03;5051262;28;20033;-76
2022/09/06 01:05:47;;;;;;;8.95;5.28;;;;;;;16.70;100.00;100540.47;5051381;28;20079;-77
2022/09/06 01:08:33;;;;;;;12.38;5.55;;;;;;;16.71;100.00;100533.38;5051752;28;20029;-76
2022/09/06 01:11:08;;;;;;;7.57;5.72;;;;;;;16.71;100.00;100531.56;5051837;28;20033;-77
2022/09/06 01:13:38;;;;;;;;;;;;;;;16.72;100.00;100535.06;5052636;28;20032;-77
2022/09/06 01:16:26;;;;;;;7.78;5.03;;;;;;;16.72;100.00;100527.97;5081170;28;19931;-76
2022/09/06 01:19:36;;;;;;;7.65;5.47;;;;;;;16.71;100.00;100514.78;5041971;28;20037;-77
2022/09/06 01:22:29;;;;;;;5.97;4.55;;;;;;;16.69;100.00;100528.19;5054320;28;20033;-77
2022/09/06 01:24:59;;;;;;;6.75;5.32;;;;;;;16.70;100.00;100537.81;5049306;28;20024;-77
2022/09/06 01:27:40;;;;;;;7.50;4.88;;;;;;;16.68;100.00;100541.56;5049718;28;20032;-75
2022/09/06 01:30:08;;;;;;;10.93;5.13;;;;;;;16.67;100.00;100545.16;5051406;28;20025;-76
2022/09/06 01:32:55;;;;;;;12.43;6.15;;;;;;;16.65;100.00;100544.44;5051215;28;20025;-75
2022/09/06 01:35:34;;;;;;;7.15;5.45;;;;;;;16.57;100.00;100542.34;5040098;28;20052;-76
2022/09/06 01:38:00;;;;;;;7.60;6.30;;;;;;;16.58;100.00;100543.19;5050427;28;20037;-75
2022/09/06 01:40:26;;;;;;;9.93;7.82;;;;;;;16.57;100.00;100533.53;5053286;28;20033;-74
2022/09/06 01:42:52;;;;;;;11.52;8.30;;;;;;;16.55;100.00;100527.47;5053387;28;20054;-74
2022/09/06 01:45:20;;;;;;;8.27;7.22;;;;;;;16.32;100.00;100492.81;5065071;28;20463;-75
2022/09/06 01:48:02;;;;;;;7.63;6.57;;;;;;;16.55;100.00;100533.66;5052838;28;20029;-74
2022/09/06 01:50:42;;;;;;;10.52;7.20;;;;;;;16.51;100.00;100531.28;5054261;28;20067;-74
2022/09/06 01:53:22;;;;;;;7.38;6.47;;;;;;;16.48;100.00;100531.53;5050952;28;20028;-74
2022/09/06 01:55:59;;;;;;;11.38;6.80;;;;;;;16.46;100.00;100528.97;5050765;28;20033;-73
2022/09/06 01:58:41;;;;;;;7.20;5.85;;;;;;;16.43;100.00;100530.97;5036187;28;20022;-74
2022/09/06 02:01:27;;;;;;;8.77;5.93;;;;;;;16.41;100.00;100533.78;5045365;28;20033;-74
2022/09/06 02:03:59;;;;;;;10.73;6.43;;;;;;;16.39;100.00;100530.38;5058283;28;20029;-74
2022/09/06 02:06:39;;;;;;;13.38;6.75;;;;;;;16.27;100.00;100507.38;5046692;28;20063;-76
2022/09/06 02:09:07;;;;;;;9.52;7.28;;;;;;;16.32;100.00;100516.69;5049697;28;20028;-75
2022/09/06 02:11:39;;;;;;;8.65;7.15;;;;;;;15.98;100.00;100461.78;5048931;28;20047;-76
2022/09/06 02:14:10;;;;;;;9.73;7.43;;;;;;;16.28;100.00;100520.53;5043166;28;20029;-75
2022/09/06 02:16:37;;;;;;;8.07;6.25;;;;;;;16.21;100.00;100508.69;5050601;28;20510;-75
2022/09/06 02:19:19;;;;;;;8.32;6.78;;;;;;;16.15;100.00;100501.19;5049611;28;20429;-75
2022/09/06 02:21:45;;;;;;;9.82;7.32;;;;;;;16.20;100.00;100506.13;5038112;28;20151;-75
2022/09/06 02:24:22;;;;;;;8.77;7.28;;;;;;;16.20;100.00;100509.63;5054543;28;20060;-75
2022/09/06 02:26:48;;;;;;;8.10;6.57;;;;;;;16.17;100.00;100506.34;5062900;28;20041;-75
2022/09/06 02:29:14;;;;;;;10.48;7.53;;;;;;;16.12;100.00;100501.38;5063949;28;20032;-75
2022/09/06 02:32:22;;;;;;;8.77;7.07;;;;;;;16.13;100.00;100510.16;5048058;28;20028;-75
2022/09/06 02:34:51;;;;;;;7.57;6.70;;;;;;;15.94;100.00;100484.13;5044600;28;20037;-75
2022/09/06 02:37:17;;;;;;;9.27;6.40;;;;;;;16.10;100.00;100505.09;5041574;28;20033;-75
2022/09/06 02:39:42;;;;;;;13.82;7.55;;;;;;;16.03;100.00;100504.69;5044381;28;20390;-75
2022/09/06 02:42:09;;;;;;;8.40;6.97;;;;;;;16.04;100.00;100502.88;5048251;28;20025;-75
2022/09/06 02:44:34;;;;;;;9.57;7.65;;;;;;;16.04;100.00;100505.53;5043473;28;20079;-75
2022/09/06 02:47:01;;;;;;;10.65;9.57;;;;;;;15.95;100.00;100485.00;5049736;28;20060;-75
2022/09/06 02:49:27;;;;;;;21.75;9.10;;;;;;;15.92;100.00;100479.91;5050596;28;20052;-75
2022/09/06 02:51:52;;;;;;;9.57;8.57;;;;;;;15.91;100.00;100473.75;5050258;28;20509;-75
2022/09/06 02:54:17;;;;;;;10.30;9.00;;;;;;;15.84;100.00;100473.34;5049412;28;20071;-76
2022/09/06 02:56:43;;;;;;;17.83;9.98;;;;;;;16.01;100.00;100495.16;5049040;28;20037;-76
2022/09/06 02:59:08;;;;;;;11.90;9.20;;;;;;;15.94;100.00;100481.50;5031554;28;20062;-76
2022/09/06 03:01:34;;;;;;;10.43;9.27;;;;;;;15.96;100.00;100497.25;5049279;28;20110;-76
2022/09/06 03:03:59;;;;;;;10.88;9.30;;;;;;;16.01;100.00;100511.06;5049376;28;20032;-76
2022/09/06 03:06:25;;;;;;;9.95;8.68;;;;;;;15.78;100.00;100467.63;5050167;28;20475;-73
2022/09/06 03:08:51;;;;;;;12.85;10.77;;;;;;;15.84;100.00;100489.25;5028822;28;20400;-75
2022/09/06 03:11:16;;;;;;;11.05;9.38;;;;;;;15.87;100.00;100490.81;5063156;28;20029;-76
2022/09/06 03:13:42;;;;;;;12.50;9.73;;;;;;;15.94;100.00;100502.69;5037504;28;20033;-75
2022/09/06 03:16:07;;;;;;;11.65;9.25;;;;;;;15.86;100.00;100489.13;5048927;28;20432;-76
2022/09/06 03:18:33;;;;;;;11.85;9.60;;;;;;;15.85;100.00;100490.06;5047560;28;20590;-75
2022/09/06 03:20:58;;;;;;;10.30;9.30;;;;;;;15.88;100.00;100495.19;5050696;28;20041;-75
2022/09/06 03:23:25;;;;;;;12.32;10.93;;;;;;;15.82;100.00;100485.00;5049347;28;20029;-76
2022/09/06 03:25:51;;;;;;;10.90;9.57;;;;;;;15.71;100.00;100476.97;5036684;28;20041;-75
2022/09/06 03:28:17;;;;;;;10.15;8.77;;;;;;;15.77;100.00;100481.81;5033495;28;20044;-75
2022/09/06 03:30:48;;;;;;;10.25;9.25;;;;;;;15.83;100.00;100494.63;5048520;28;20029;-74
2022/09/06 03:33:14;;;;;;;17.50;9.23;;;;;;;15.75;100.00;100494.31;5047358;28;20029;-75
2022/09/06 03:35:40;;;;;;;12.80;9.43;;;;;;;15.76;100.00;100496.03;5038927;28;20123;-75
2022/09/06 03:38:06;;;;;;;12.98;9.32;;;;;;;15.65;100.00;100483.53;5060929;28;20029;-75
2022/09/06 03:40:31;;;;;;;11.05;8.82;;;;;;;15.72;100.00;100489.22;5060712;28;20085;-74
2022/09/06 03:42:56;;;;;;;12.77;10.38;;;;;;;15.61;100.00;100476.78;5051262;28;20052;-75
2022/09/06 03:45:22;;;;;;;10.68;9.25;;;;;;;15.67;100.00;100486.06;5039997;28;20066;-75
2022/09/06 03:47:47;;;;;;;13.18;8.60;;;;;;;15.62;100.00;100474.94;5042756;28;20538;-73
2022/09/06 03:50:12;;;;;;;10.45;9.32;;;;;;;15.62;100.00;100480.25;5047197;28;20379;-73
2022/09/06 03:52:39;;;;;;;15.98;10.05;;;;;;;15.70;100.00;100493.81;5043747;28;20083;-73
2022/09/06 03:55:05;;;;;;;11.98;10.23;;;;;;;15.61;100.00;100476.78;5062283;28;20021;-74
2022/09/06 03:57:31;;;;;;;16.42;9.68;;;;;;;15.68;100.00;100495.72;5068143;28;20040;-73
2022/09/06 03:59:56;;;;;;;11.10;9.98;;;;;;;15.65;100.00;100493.25;5040109;28;20029;-73
2022/09/06 04:02:22;;;;;;;13.25;9.68;;;;;;;15.61;100.00;100497.09;5049084;28;20032;-73
2022/09/06 04:04:47;;;;;;;10.57;9.07;;;;;;;15.49;100.00;100476.75;5053485;28;20029;-73
2022/09/06 04:07:12;;;;;;;11.65;9.68;;;;;;;15.47;100.00;100478.63;5038058;28;20029;-73
2022/09/06 04:09:38;;;;;;;9.93;8.90;;;;;;;15.49;100.00;100490.00;5044619;28;20029;-74
2022/09/06 04:12:03;;;;;;;12.60;10.32;;;;;;;15.49;100.00;100504.09;5048071;28;20055;-74
2022/09/06 04:14:29;;;;;;;14.77;9.57;;;;;;;15.34;100.00;100474.16;5052184;28;20044;-74
2022/09/06 04:16:54;;;;;;;11.32;9.60;;;;;;;15.39;100.00;100488.91;5052580;28;20032;-74
2022/09/06 04:19:20;;;;;;;12.75;11.43;;;;;;;15.45;100.00;100497.25;5052238;28;20048;-74
2022/09/06 04:21:45;;;;;;;11.55;10.18;;;;;;;15.46;100.00;100498.13;5049737;28;20021;-75
2022/09/06 04:24:10;;;;;;;12.80;10.70;;;;;;;15.44;100.00;100500.03;5023230;28;20550;-73
2022/09/06 04:26:36;;;;;;;11.88;9.30;;;;;;;15.43;100.00;100503.63;5016277;28;20857;-74
2022/09/06 04:29:01;;;;;;;11.02;9.70;;;;;;;15.32;100.00;100486.66;5037444;28;20029;-73
2022/09/06 04:31:26;;;;;;;15.35;10.68;;;;;;;15.33;100.00;100493.69;5053807;28;20060;-73
2022/09/06 04:33:52;;;;;;;16.50;11.70;;;;;;;15.35;100.00;100496.19;5052047;28;20487;-72
2022/09/06 04:36:17;;;;;;;15.88;10.90;;;;;;;15.42;100.00;100501.91;5045247;28;20033;-72
2022/09/06 04:38:43;;;;;;;11.93;10.80;;;;;;;15.26;100.00;100481.81;5046050;28;20025;-72
2022/09/06 04:41:14;;;;;;;14.82;11.88;;;;;;;14.98;100.00;100449.34;5059690;28;20032;-73
2022/09/06 04:43:40;;;;;;;12.88;11.50;;;;;;;15.40;100.00;100509.13;5053134;28;20037;-72
2022/09/06 04:46:10;;;;;;;11.48;10.40;;;;;;;15.31;100.00;100502.66;5045198;28;20029;-72
2022/09/06 04:48:35;;;;;;;13.63;11.52;;;;;;;15.28;100.00;100506.38;5063448;28;20472;-73
2022/09/06 04:51:00;;;;;;;12.68;10.82;;;;;;;15.24;100.00;100491.63;5048941;28;20040;-73
2022/09/06 04:53:26;;;;;;;13.93;12.02;;;;;;;15.28;100.00;100503.72;5058712;28;20468;-73
2022/09/06 04:55:51;;;;;;;12.50;11.27;;;;;;;15.22;100.00;100490.03;5050928;28;20024;-73
2022/09/06 04:58:17;;;;;;;13.02;11.73;;;;;;;15.30;100.00;100504.47;5065879;28;20028;-75
2022/09/06 05:00:43;;;;;;;17.17;11.35;;;;;;;15.30;100.00;100504.47;5054126;28;20032;-77
2022/09/06 05:03:09;;;;;;;11.40;10.20;;;;;;;15.23;100.00;100492.59;5050861;28;20056;-76
2022/09/06 05:05:34;;;;;;;14.15;10.02;;;;;;;15.28;100.00;100506.38;5052713;28;20107;-76
2022/09/06 05:07:59;;;;;;;16.08;11.90;;;;;;;15.19;100.00;100487.59;5059918;28;20109;-76
2022/09/06 05:10:25;;;;;;;14.05;10.30;;;;;;;15.27;100.00;100506.47;5033685;28;20521;-76
2022/09/06 05:12:52;;;;;;;14.48;10.60;;;;;;;15.25;100.00;100506.56;5048184;28;20236;-76
2022/09/06 05:15:18;;;;;;;14.38;10.65;;;;;;;15.17;100.00;100502.75;5036862;28;20902;-76
2022/09/06 05:17:43;;;;;;;11.75;10.18;;;;;;;15.13;100.00;100491.53;5068410;28;20028;-76
2022/09/06 05:20:09;;;;;;;11.52;10.38;;;;;;;15.14;100.00;100493.19;5016117;28;20037;-74
2022/09/06 05:22:35;;;;;;;12.38;9.98;;;;;;;15.22;100.00;100506.78;5021703;28;20059;-75
2022/09/06 05:25:01;;;;;;;12.85;10.30;;;;;;;14.98;100.00;100466.09;5024104;28;20045;-75
2022/09/06 05:27:26;;;;;;;14.35;10.50;;;;;;;15.13;100.00;100490.69;5058019;28;20027;-75
2022/09/06 05:29:51;;;;;;;12.43;10.45;;;;;;;15.22;100.00;100505.94;5027223;28;20033;-76
2022/09/06 05:32:17;;;;;;;12.55;11.40;;;;;;;15.24;100.00;100509.34;5020191;28;20029;-76
2022/09/06 05:34:42;;;;;;;12.48;10.00;;;;;;;15.26;100.00;100507.44;5047404;28;20063;-76
2022/09/06 05:37:07;;;;;;;12.82;10.38;;;;;;;15.21;100.00;100496.28;5012697;28;20037;-72
2022/09/06 05:39:33;;;;;;;12.00;10.00;;;;;;;15.32;100.00;100501.72;5013198;28;20036;-74
2022/09/06 05:41:59;;;;;;;12.05;10.35;;;;;;;15.31;100.00;100500.84;5018480;28;20024;-75
2022/09/06 05:44:24;;;;;;;11.15;8.88;;;;;;;15.39;100.00;100502.13;5012183;28;20041;-75
2022/09/06 05:46:50;;;;;;;11.77;10.50;;;;;;;15.32;100.00;100478.72;5014446;28;20029;-76
2022/09/06 05:49:15;;;;;;;14.80;9.65;;;;;;;15.39;100.00;100492.41;5022423;28;20025;-75
2022/09/06 05:51:41;;;;;;;15.82;10.45;;;;;;;15.48;100.00;100497.09;5028189;28;20804;-75
2022/09/06 05:54:06;;;;;;;12.00;9.38;;;;;;;15.45;100.00;100486.66;5030186;28;20048;-75
2022/09/06 05:56:35;;;;;;;11.52;9.38;;;;;;;15.57;100.00;100495.63;5031928;28;20035;-75
2022/09/06 05:59:00;;;;;;;15.63;9.63;;;;;;;15.51;100.00;100486.31;5041057;28;20032;-75
2022/09/06 06:01:28;;;;;;;13.63;9.57;;;;;;;15.65;100.00;100504.72;5047952;28;20037;-75
2022/09/06 06:04:01;;;;;;;10.27;9.23;;;;;;;15.60;100.00;100484.81;5050949;28;20402;-75
2022/09/06 06:06:29;;;;;;;12.02;8.70;;;;;;;15.69;100.00;100490.31;5043538;28;20025;-75
2022/09/06 06:08:55;;;;;;;11.98;10.18;;;;;;;15.75;100.00;100500.47;5024170;28;20029;-75
2022/09/06 06:11:21;;;;;;;9.50;8.50;;;;;;;15.84;100.00;100504.28;5041758;28;20166;-75
2022/09/06 06:13:46;;;;;;;12.07;7.97;;;;;;;15.90;100.00;100506.50;5047002;28;20223;-75
2022/09/06 06:16:13;;;;;;;10.75;8.45;;;;;;;15.47;100.00;100430.97;5041021;28;20028;-75
2022/09/06 06:18:39;;;;;;;13.98;9.07;;;;;;;15.95;100.00;100501.75;5040887;28;20040;-75
2022/09/06 06:21:09;;;;;;;12.02;8.82;;;;;;;16.07;100.00;100505.31;5042750;28;20468;-75
2022/09/06 06:23:34;;;;;;;9.20;8.30;;;;;;;16.16;100.00;100505.50;5041714;28;20032;-75
2022/09/06 06:25:59;;;;;;;12.88;9.65;;;;;;;16.19;100.00;100505.28;5040555;28;20573;-75
2022/09/06 06:28:25;;;;;;;9.18;8.10;;;;;;;16.21;100.00;100503.38;5042314;28;20020;-74
2022/09/06 06:30:50;;;;;;;9.02;6.70;;;;;;;16.26;100.00;100503.88;5046725;28;20120;-75
2022/09/06 06:33:15;;;;;;;8.73;6.07;;;;;;;16.31;100.00;100501.75;5046418;28;20579;-74
2022/09/06 06:35:42;;;;;;;9.93;7.10;;;;;;;16.41;100.00;100503.75;5044116;28;20051;-74
2022/09/06 06:38:07;;;;;;;6.97;5.88;;;;;;;16.29;100.00;100485.09;5040810;28;20040;-74
2022/09/06 06:40:33;;;;;;;7.95;6.07;;;;;;;16.42;100.00;100484.22;5045269;28;20616;-74
2022/09/06 06:42:59;;;;;;;6.50;5.53;;;;;;;16.33;100.00;100469.81;5043140;28;20056;-74
2022/09/06 06:45:25;;;;;;;6.07;5.28;;;;;;;16.28;100.00;100448.94;5007549;28;20024;-74
2022/09/06 06:47:50;;;;;;;14.73;5.18;;;;;;;16.61;100.00;100490.75;5042002;28;20040;-74
2022/09/06 06:50:16;;;;;;;7.05;4.55;;;;;;;16.74;100.00;100501.28;5035447;28;20029;-74
2022/09/06 06:52:41;;;;;;;6.93;4.25;;;;;;;16.81;100.00;100494.56;5033846;28;20041;-74
2022/09/06 06:55:07;;;;;;;5.20;3.97;;;;;;;16.83;100.00;100493.50;5033921;28;20175;-74
2022/09/06 06:57:32;;;;;;;13.95;4.10;;;;;;;16.88;100.00;100493.16;5020303;28;20025;-74
2022/09/06 06:59:58;;;;;;;7.72;3.95;;;;;;;16.90;100.00;100487.75;5037075;28;20032;-74
2022/09/06 07:02:23;;;;;;;6.47;3.83;;;;;;;16.79;100.00;100456.69;5044614;28;20115;-74
2022/09/06 07:04:48;;;;;;;4.22;2.85;;;;;;;16.97;100.00;100481.84;5023722;28;20198;-75
2022/09/06 07:07:15;;;;;;;4.35;3.15;;;;;;;17.03;100.00;100481.41;5038520;28;20028;-75
2022/09/06 07:09:40;;;;;;;6.55;3.67;;;;;;;17.13;100.00;100495.69;5028502;28;20392;-73
2022/09/06 07:12:06;;;;;;;10.82;3.45;;;;;;;17.19;100.00;100489.91;5038652;28;20036;-74
2022/09/06 07:14:31;;;;;;;4.25;3.20;;;;;;;17.16;100.00;100470.69;5057837;28;20041;-74
2022/09/06 07:16:58;;;;;;;4.47;3.10;;;;;;;17.22;100.00;100475.53;5042466;28;20029;-75
2022/09/06 07:19:23;;;;;;;5.22;3.40;;;;;;;17.31;100.00;100478.31;5047663;28;20037;-75
2022/09/06 07:21:49;;;;;;;5.93;3.38;;;;;;;17.41;100.00;100485.56;5060299;28;20017;-75
2022/09/06 07:24:14;;;;;;;15.15;3.38;;;;;;;17.40;100.00;100470.63;5042414;28;20122;-74
2022/09/06 07:26:40;;;;;;;6.93;3.05;;;;;;;17.45;100.00;100468.44;5046034;28;20076;-73
2022/09/06 07:29:06;;;;;;;6.40;3.88;;;;;;;17.50;100.00;100464.47;5046033;28;20040;-74
2022/09/06 07:31:32;;;;;;;7.22;3.10;;;;;;;17.64;100.00;100477.53;5060097;28;20457;-75
2022/09/06 07:33:57;;;;;;;5.03;3.08;;;;;;;17.61;100.00;100467.16;5047049;28;20493;-74
2022/09/06 07:36:23;;;;;;;4.95;3.25;;;;;;;17.35;100.00;100415.19;5045661;28;20074;-73
2022/09/06 07:38:49;;;;;;;8.52;3.45;;;;;;;17.78;100.00;100474.66;5039334;28;20136;-75
2022/09/06 07:41:16;;;;;;;6.05;3.13;;;;;;;17.86;100.00;100477.56;5047442;28;20025;-73
2022/09/06 07:43:41;;;;;;;5.20;2.67;;;;;;;17.94;100.00;100482.28;5044448;28;20495;-74
2022/09/06 07:46:12;;;;;;;5.45;2.83;;;;;;;17.71;100.00;100436.22;5057940;28;20036;-73
2022/09/06 07:48:39;;;;;;;6.45;2.85;;;;;;;18.08;100.00;100474.03;5048223;28;20083;-75
2022/09/06 07:51:15;;;;;;;6.10;2.97;;;;;;;18.17;100.00;100481.28;5046690;28;20039;-74
2022/09/06 07:53:43;;;;;;;4.57;2.75;;;;;;;18.25;100.00;100484.16;5031096;28;20122;-74
2022/09/06 07:56:10;;;;;;;5.90;2.88;;;;;;;18.31;100.00;100473.06;5046040;28;20138;-73
2022/09/06 07:58:36;;;;;;;5.85;2.60;;;;;;;18.41;100.00;100488.25;5041427;28;20036;-74
2022/09/06 08:01:29;;;;;;;7.80;2.33;;;;;;;18.52;100.00;100480.28;5039092;28;20037;-74
2022/09/06 08:04:02;;;;;;;3.88;2.10;;;;;;;18.65;100.00;100475.66;5044094;28;20029;-74
2022/09/06 08:06:30;;;;;;;6.78;2.30;;;;;;;18.77;100.00;100474.63;5041038;28;20071;-74
2022/09/06 08:08:56;;;;;;;4.95;2.35;;;;;;;18.89;100.00;100473.63;5039481;28;20087;-74
2022/09/06 08:11:23;;;;;;;5.28;2.75;;;;;;;19.00;100.00;100465.56;5055740;28;20812;-73
2022/09/06 08:13:51;;;;;;;6.57;1.95;;;;;;;19.07;100.00;100474.72;5044121;28;20017;-74
2022/09/06 08:16:17;;;;;;;3.75;2.28;;;;;;;19.13;100.00;100470.72;5032680;28;20025;-74
2022/09/06 08:18:42;;;;;;;3.45;2.15;;;;;;;19.16;100.00;100460.63;5038486;28;20025;-73
2022/09/06 08:21:13;;;;;;;4.35;2.25;;;;;;;19.27;100.00;100473.88;5045616;28;20044;-73
2022/09/06 08:23:43;;;;;;;3.97;2.15;;;;;;;19.37;100.00;100465.94;5047552;28;20187;-73
2022/09/06 08:26:08;;;;;;;4.30;1.73;;;;;;;19.48;100.00;100465.06;5049104;28;20131;-73
2022/09/06 08:28:33;;;;;;;3.15;1.80;;;;;;;19.56;100.00;100463.44;5043703;28;20494;-73
2022/09/06 08:31:13;;;;;;;4.35;1.88;;;;;;;19.66;100.00;100460.81;5042926;28;20033;-73
2022/09/06 08:33:39;;;;;;;5.45;1.98;;;;;;;19.82;100.00;100482.50;5047846;28;20517;-69
2022/09/06 08:36:06;;;;;;;3.30;1.80;;;;;;;19.97;100.00;100483.00;5047237;28;20037;-71
2022/09/06 08:38:32;;;;;;;4.40;1.83;;;;;;;20.04;100.00;100479.63;5046393;28;20087;-73
2022/09/06 08:41:15;;;;;;;5.68;2.25;;;;;;;20.13;100.00;100489.50;5046045;28;20033;-72
2022/09/06 08:43:53;;;;;;;3.40;1.60;;;;;;;20.20;100.00;100471.97;5042470;28;20032;-72
2022/09/06 08:46:20;;;;;;;6.15;2.13;;;;;;;19.95;100.00;100416.41;5043597;28;20041;-73
2022/09/06 08:48:46;;;;;;;3.92;1.70;;;;;;;20.55;100.00;100484.03;5048130;28;20464;-72
2022/09/06 08:51:26;;;;;;;4.53;2.17;;;;;;;20.73;100.00;100495.69;5052197;28;20055;-73
2022/09/06 08:53:58;;;;;;;6.05;2.72;;;;;;;20.88;100.00;100491.63;5047578;28;20560;-73
2022/09/06 08:56:27;;;;;;;4.05;1.92;;;;;;;20.89;100.00;100462.09;5042596;28;20395;-74
2022/09/06 08:59:05;;;;;;;4.90;2.45;;;;;;;21.19;100.00;100489.69;5042626;28;20021;-73
2022/09/06 09:01:48;;;;;;;7.90;2.30;;;;;;;21.31;100.00;100477.84;5047379;28;20055;-72
2022/09/06 09:04:16;;;;;;;3.50;1.80;;;;;;;21.51;100.00;100484.81;5020222;28;20032;-70
2022/09/06 09:06:44;;;;;;;3.25;1.85;;;;;;;21.63;100.00;100483.66;5022457;28;20391;-72
2022/09/06 09:09:12;;;;;;;7.38;2.38;;;;;;;21.75;100.00;100481.66;5035851;28;20024;-73
2022/09/06 09:11:41;;;;;;;3.20;2.00;;;;;;;21.88;100.00;100482.16;5052378;28;20029;-73
2022/09/06 09:14:19;;;;;;;4.35;1.98;;;;;;;21.97;100.00;100475.97;5068746;28;20048;-72
2022/09/06 09:16:44;;;;;;;5.55;1.95;;;;;;;22.06;100.00;100477.75;5047079;28;20524;-73
2022/09/06 09:19:10;;;;;;;5.47;2.10;;;;;;;22.02;100.00;100449.59;5044021;28;20028;-72
2022/09/06 09:21:37;;;;;;;5.60;1.92;;;;;;;22.27;100.00;100481.00;5048328;28;20040;-71
2022/09/06 09:24:14;;;;;;;4.15;1.90;;;;;;;22.40;100.00;100473.50;5045469;28;20092;-72
2022/09/06 09:26:45;;;;;;;4.82;1.77;;;;;;;22.50;100.00;100469.91;5056163;28;20067;-72
2022/09/06 09:29:12;;;;;;;3.65;1.85;;;;;;;22.49;100.00;100466.38;5061512;28;20513;-70
2022/09/06 09:31:51;;;;;;;10.68;2.63;;;;;;;22.62;100.00;100482.06;5064366;28;20047;-70
2022/09/06 09:34:37;;;;;;;8.88;1.65;;;;;;;22.77;100.00;100483.25;5059821;28;20111;-71
2022/09/06 09:37:16;;;;;;;7.45;1.67;;;;;;;22.92;100.00;100495.13;5052427;28;20123;-73
2022/09/06 09:39:41;;;;;;;11.45;2.65;;;;;;;23.03;100.00;100491.38;5051320;28;20119;-71
2022/09/06 09:42:08;;;;;;;4.32;2.17;;;;;;;23.11;100.00;100486.94;5044690;28;20115;-71
2022/09/06 09:44:35;;;;;;;8.20;2.40;;;;;;;23.11;100.00;100462.81;5041035;28;20597;-71
2022/09/06 09:47:21;;;;;;;3.92;1.98;;;;;;;23.01;100.00;100435.25;5044608;28;20056;-72
2022/09/06 09:49:46;;;;;;;4.72;2.30;;;;;;;23.18;100.00;100463.88;5040062;28;20498;-72
2022/09/06 09:52:13;;;;;;;5.88;2.50;;;;;;;23.38;100.00;100476.09;5049475;28;20028;-73
2022/09/06 09:54:44;;;;;;;5.07;2.50;;;;;;;23.43;100.00;100475.63;5056160;28;20025;-72
2022/09/06 09:57:14;;;;;;;4.18;2.35;;;;;;;23.45;100.00;100470.09;5049595;28;20248;-73
2022/09/06 09:59:50;;;;;;;5.63;2.42;;;;;;;23.53;100.00;100479.03;5047440;28;20116;-72
2022/09/06 10:02:20;;;;;;;4.68;2.30;;;;;;;23.65;100.00;100474.25;5043050;28;20044;-72
2022/09/06 10:04:51;;;;;;;6.68;2.15;;;;;;;23.69;100.00;100481.00;5044273;28;20058;-73
2022/09/06 10:07:21;;;;;;;3.35;2.20;;;;;;;23.74;100.00;100487.56;5047436;28;20478;-73
2022/09/06 10:09:49;;;;;;;4.55;1.75;;;;;;;23.84;100.00;100482.06;5047596;28;20494;-72
2022/09/06 10:12:28;;;;;;;6.40;2.33;;;;;;;23.91;100.00;100483.13;5054108;28;20036;-74
2022/09/06 10:14:54;;;;;;;6.20;2.20;;;;;;;24.02;100.00;100482.00;5034708;28;20032;-74
2022/09/06 10:17:25;;;;;;;6.00;2.15;;;;;;;24.07;100.00;100483.19;5041980;28;20033;-73
2022/09/06 10:19:51;;;;;;;4.60;2.22;;;;;;;24.02;100.00;100458.69;5043585;28;20131;-73
2022/09/06 10:22:26;;;;;;;4.80;2.42;;;;;;;24.15;100.00;100488.63;5044255;28;20555;-74
2022/09/06 10:25:10;;;;;;;4.80;2.47;;;;;;;24.25;100.00;100478.59;5035457;28;20276;-73
2022/09/06 10:27:35;;;;;;;;;;;;;;;24.39;100.00;100477.97;5044559;28;20543;-73
2022/09/06 10:30:04;;;;;;;5.07;2.60;;;;;;;23.97;100.00;100401.94;5080431;28;19928;-73
2022/09/06 10:32:35;;;;;;;3.92;1.85;;;;;;;24.58;100.00;100478.69;5041854;28;20471;-72
2022/09/06 10:35:10;;;;;;;5.57;2.42;;;;;;;24.70;100.00;100478.22;5040623;28;20033;-72
2022/09/06 10:37:44;;;;;;;3.35;2.15;;;;;;;24.83;100.00;100475.06;5038396;28;20451;-72
2022/09/06 10:40:12;;;;;;;9.55;2.65;;;;;;;24.89;100.00;100463.63;5023614;28;20392;-72
2022/09/06 10:42:52;;;;;;;5.53;2.20;;;;;;;25.01;100.00;100467.66;5034697;28;20044;-72
2022/09/06 10:45:28;;;;;;;3.60;2.30;;;;;;;25.07;100.00;100464.31;5036718;28;20033;-71
2022/09/06 10:48:20;;;;;;;4.22;2.33;;;;;;;25.17;100.00;100461.47;5044741;28;20033;-71
2022/09/06 10:50:52;;;;;;;6.07;2.60;;;;;;;25.31;100.00;100456.22;5031512;28;20049;-72
2022/09/06 10:53:20;;;;;;;4.10;2.20;;;;;;;25.45;100.00;100461.94;5030649;28;20033;-72
2022/09/06 10:56:00;;;;;;;4.80;2.00;;;;;;;25.43;100.00;100446.78;5020585;28;20920;-72
2022/09/06 10:58:28;;;;;;;5.03;2.70;;;;;;;25.60;100.00;100457.53;5038498;28;20040;-71
2022/09/06 11:00:54;;;;;;;4.68;2.40;;;;;;;25.65;100.00;100461.41;5025315;28;20831;-72
2022/09/06 11:03:30;;;;;;;4.47;2.25;;;;;;;25.74;100.00;100455.00;5022627;28;20131;-71
2022/09/06 11:06:02;;;;;;;4.15;1.90;;;;;;;25.50;100.00;100411.13;5026827;28;20033;-72
2022/09/06 11:08:48;;;;;;;3.88;2.00;;;;;;;25.93;100.00;100469.91;5025878;28;20032;-71
2022/09/06 11:11:27;;;;;;;7.75;2.08;;;;;;;25.89;94.13;100469.41;5020438;28;20104;-71
2022/09/06 11:13:52;;;;;;;4.05;1.45;;;;;;;25.81;91.35;100449.75;5030759;28;20428;-72
2022/09/06 11:16:21;;;;;;;2.75;1.25;;;;;;;25.97;85.00;100465.00;5031622;28;20031;-72
2022/09/06 11:18:55;;;;;;;3.28;1.42;;;;;;;26.03;83.16;100462.44;5028777;28;20056;-71
2022/09/06 11:21:33;;;;;;;2.83;1.23;;;;;;;26.21;82.41;100460.38;5025751;28;20032;-71
2022/09/06 11:24:15;;;;;;;5.07;1.80;;;;;;;26.28;81.49;100464.06;5018475;28;20037;-71